createdAt,value
2022-09-17T00:01:38.113Z,3.90
2022-09-17T00:04:05.449Z,4.90
2022-09-17T00:06:33.436Z,2.00
2022-09-17T00:09:00.563Z,3.80
2022-09-17T00:11:29.071Z,2.95
2022-09-17T00:13:56.792Z,3.22
2022-09-17T00:16:26.990Z,3.40
2022-09-17T00:18:54.598Z,2.88
2022-09-17T00:21:22.388Z,2.97
2022-09-17T00:23:49.727Z,2.65
2022-09-17T00:26:16.817Z,3.15
2022-09-17T00:28:48.274Z,3.08
2022-09-17T00:31:15.430Z,3.17
2022-09-17T00:33:42.510Z,4.60
2022-09-17T00:36:09.811Z,2.17
2022-09-17T00:38:36.894Z,2.90
2022-09-17T00:41:04.344Z,1.60
2022-09-17T00:43:42.678Z,3.53
2022-09-17T00:46:33.047Z,1.88
2022-09-17T00:49:02.223Z,3.88
2022-09-17T00:51:37.854Z,3.60
2022-09-17T00:54:06.832Z,2.75
2022-09-17T00:56:35.786Z,1.50
2022-09-17T00:59:03.674Z,1.60
2022-09-17T01:01:31.315Z,2.03
2022-09-17T01:03:58.722Z,2.88
2022-09-17T01:06:51.056Z,1.98
2022-09-17T01:09:21.308Z,2.10
2022-09-17T01:12:06.941Z,2.28
2022-09-17T01:14:46.276Z,1.60
2022-09-17T01:17:32.093Z,3.40
2022-09-17T01:19:59.111Z,2.03
2022-09-17T01:22:32.084Z,1.85
2022-09-17T01:25:17.777Z,2.50
2022-09-17T01:27:58.008Z,4.70
2022-09-17T01:30:42.514Z,4.60
2022-09-17T01:33:15.667Z,3.47
2022-09-17T01:35:48.542Z,2.53
2022-09-17T01:38:18.843Z,2.35
2022-09-17T01:40:53.092Z,8.23
2022-09-17T01:43:24.807Z,2.80
2022-09-17T01:45:53.255Z,3.35
2022-09-17T01:48:21.243Z,2.45
2022-09-17T01:50:53.956Z,3.45
2022-09-17T01:53:24.488Z,2.58
2022-09-17T01:55:53.439Z,5.10
2022-09-17T01:58:32.457Z,6.13
2022-09-17T02:01:03.708Z,3.15
2022-09-17T02:03:45.687Z,2.38
2022-09-17T02:06:22.419Z,5.35
2022-09-17T02:08:52.754Z,2.25
2022-09-17T02:11:20.314Z,4.53
2022-09-17T02:13:59.912Z,8.63
2022-09-17T02:16:28.426Z,3.53
2022-09-17T02:19:07.960Z,3.88
2022-09-17T02:21:53.558Z,7.88
2022-09-17T02:24:24.309Z,7.88
2022-09-17T02:27:00.280Z,5.47
2022-09-17T02:29:34.888Z,4.03
2022-09-17T02:32:02.114Z,6.50
2022-09-17T02:34:29.461Z,6.55
2022-09-17T02:36:58.654Z,2.95
2022-09-17T02:39:26.161Z,3.92
2022-09-17T02:41:56.331Z,4.60
2022-09-17T02:44:28.826Z,7.88
2022-09-17T02:47:13.286Z,6.60
2022-09-17T02:49:50.081Z,7.65
2022-09-17T02:52:26.321Z,4.55
2022-09-17T02:55:01.857Z,3.25
2022-09-17T02:57:38.905Z,5.97
2022-09-17T03:00:13.539Z,4.43
2022-09-17T03:02:43.635Z,7.05
2022-09-17T03:05:11.450Z,5.60
2022-09-17T03:07:38.673Z,4.22
2022-09-17T03:10:06.118Z,5.10
2022-09-17T03:12:33.289Z,4.45
2022-09-17T03:15:00.785Z,5.65
2022-09-17T03:17:28.151Z,4.65
2022-09-17T03:19:55.250Z,3.90
2022-09-17T03:22:22.353Z,5.85
2022-09-17T03:24:49.440Z,4.85
2022-09-17T03:27:16.603Z,5.60
2022-09-17T03:29:43.929Z,3.53
2022-09-17T03:32:11.130Z,5.85
2022-09-17T03:34:38.246Z,5.00
2022-09-17T03:37:05.423Z,5.60
2022-09-17T03:39:32.503Z,5.93
2022-09-17T03:41:59.591Z,3.88
2022-09-17T03:44:26.708Z,9.80
2022-09-17T03:46:53.786Z,4.43
2022-09-17T03:49:20.860Z,7.32
2022-09-17T03:51:47.960Z,6.68
2022-09-17T03:54:15.037Z,8.90
2022-09-17T03:56:42.107Z,4.40
2022-09-17T03:59:09.433Z,6.10
2022-09-17T04:01:36.753Z,7.28
2022-09-17T04:04:04.467Z,7.07
2022-09-17T04:06:31.576Z,5.15
2022-09-17T04:09:00.858Z,5.90
2022-09-17T04:11:28.110Z,4.80
2022-09-17T04:13:55.275Z,6.50
2022-09-17T04:16:22.429Z,7.22
2022-09-17T04:18:49.795Z,5.78
2022-09-17T04:21:16.859Z,4.63
2022-09-17T04:23:43.935Z,5.65
2022-09-17T04:26:11.279Z,6.63
2022-09-17T04:28:38.514Z,5.93
2022-09-17T04:31:05.693Z,4.32
2022-09-17T04:33:32.805Z,7.00
2022-09-17T04:35:59.878Z,5.82
2022-09-17T04:38:26.976Z,7.70
2022-09-17T04:40:57.196Z,6.15
2022-09-17T04:43:24.549Z,6.65
2022-09-17T04:45:51.601Z,7.82
2022-09-17T04:48:18.735Z,6.32
2022-09-17T04:50:45.894Z,5.40
2022-09-17T04:53:13.178Z,7.35
2022-09-17T04:55:40.419Z,8.82
2022-09-17T04:58:07.488Z,5.57
2022-09-17T05:00:35.481Z,10.13
2022-09-17T05:03:02.834Z,7.38
2022-09-17T05:05:30.025Z,6.13
2022-09-17T05:07:57.111Z,5.90
2022-09-17T05:10:24.257Z,8.13
2022-09-17T05:12:52.245Z,8.23
2022-09-17T05:15:19.679Z,6.60
2022-09-17T05:17:47.370Z,8.80
2022-09-17T05:20:15.291Z,3.63
2022-09-17T05:22:46.306Z,7.82
2022-09-17T05:25:13.809Z,8.15
2022-09-17T05:27:41.098Z,8.45
2022-09-17T05:30:08.766Z,11.60
2022-09-17T05:32:36.699Z,8.40
2022-09-17T05:35:05.739Z,4.65
2022-09-17T05:37:33.238Z,5.70
2022-09-17T05:40:00.419Z,6.88
2022-09-17T05:42:27.870Z,8.75
2022-09-17T05:44:54.922Z,9.25
2022-09-17T05:47:22.001Z,7.57
2022-09-17T05:49:49.161Z,7.05
2022-09-17T05:52:16.289Z,10.90
2022-09-17T05:54:43.450Z,8.75
2022-09-17T05:57:10.534Z,12.57
2022-09-17T05:59:37.656Z,9.35
2022-09-17T06:02:05.688Z,10.48
2022-09-17T06:04:34.886Z,9.40
2022-09-17T06:07:05.035Z,7.95
2022-09-17T06:09:32.113Z,7.95
2022-09-17T06:11:59.169Z,8.27
2022-09-17T06:14:26.266Z,16.30
2022-09-17T06:16:53.458Z,17.02
2022-09-17T06:19:20.570Z,6.25
2022-09-17T06:21:47.758Z,8.05
2022-09-17T06:24:14.840Z,8.30
2022-09-17T06:26:41.961Z,4.72
2022-09-17T06:29:09.093Z,6.30
2022-09-17T06:31:36.174Z,9.43
2022-09-17T06:34:05.548Z,6.68
2022-09-17T06:36:32.592Z,6.15
2022-09-17T06:38:59.712Z,7.03
2022-09-17T06:41:27.033Z,5.72
2022-09-17T06:43:54.568Z,7.55
2022-09-17T06:46:21.894Z,10.40
2022-09-17T06:48:49.080Z,8.32
2022-09-17T06:51:16.145Z,9.60
2022-09-17T06:53:43.343Z,8.57
2022-09-17T06:56:10.967Z,8.05
2022-09-17T06:58:38.360Z,8.95
2022-09-17T07:01:05.954Z,10.90
2022-09-17T07:03:33.171Z,6.68
2022-09-17T07:06:00.265Z,5.30
2022-09-17T07:08:27.354Z,8.90
2022-09-17T07:10:57.714Z,8.40
2022-09-17T07:13:25.517Z,7.72
2022-09-17T07:15:53.339Z,7.63
2022-09-17T07:18:20.714Z,6.97
2022-09-17T07:20:54.019Z,5.55
2022-09-17T07:23:21.291Z,12.02
2022-09-17T07:25:52.419Z,6.85
2022-09-17T07:28:19.905Z,4.40
2022-09-17T07:30:47.135Z,5.95
2022-09-17T07:33:14.286Z,8.32
2022-09-17T07:35:41.334Z,8.88
2022-09-17T07:38:08.408Z,6.07
2022-09-17T07:40:35.620Z,6.20
2022-09-17T07:43:02.723Z,7.88
2022-09-17T07:45:29.771Z,4.10
2022-09-17T07:47:56.858Z,6.57
2022-09-17T07:50:23.930Z,6.65
2022-09-17T07:52:51.007Z,5.45
2022-09-17T07:55:18.118Z,6.57
2022-09-17T07:57:51.112Z,7.40
2022-09-17T08:00:18.191Z,7.45
2022-09-17T08:02:45.365Z,4.25
2022-09-17T08:05:12.601Z,3.83
2022-09-17T08:07:40.127Z,6.50
2022-09-17T08:10:07.319Z,6.90
2022-09-17T08:12:34.437Z,4.90
2022-09-17T08:15:01.646Z,9.57
2022-09-17T08:17:28.687Z,7.38
2022-09-17T08:19:55.760Z,10.00
2022-09-17T08:22:22.823Z,5.13
2022-09-17T08:24:49.910Z,8.82
2022-09-17T08:27:17.046Z,8.88
2022-09-17T08:29:44.113Z,8.18
2022-09-17T08:32:12.019Z,8.52
2022-09-17T08:34:39.117Z,8.35
2022-09-17T08:37:06.204Z,9.93
2022-09-17T08:39:33.326Z,11.00
2022-09-17T08:42:09.508Z,13.57
2022-09-17T08:44:43.659Z,14.35
2022-09-17T08:47:13.582Z,9.93
2022-09-17T08:49:51.951Z,7.68
2022-09-17T08:52:37.921Z,10.43
2022-09-17T08:55:23.923Z,12.85
2022-09-17T08:58:09.934Z,12.82
2022-09-17T09:00:47.839Z,10.52
2022-09-17T09:03:14.901Z,8.60
2022-09-17T09:05:41.954Z,13.77
2022-09-17T09:08:38.734Z,11.80
2022-09-17T09:11:07.440Z,12.05
2022-09-17T09:13:53.058Z,12.27
2022-09-17T09:16:22.338Z,13.90
2022-09-17T09:18:52.106Z,8.43
2022-09-17T09:21:27.516Z,16.30
2022-09-17T09:24:01.369Z,13.75
2022-09-17T09:26:44.885Z,16.42
2022-09-17T09:29:30.747Z,11.60
2022-09-17T09:31:57.885Z,11.82
2022-09-17T09:34:26.545Z,8.77
2022-09-17T09:36:55.335Z,9.88
2022-09-17T09:39:24.866Z,11.00
2022-09-17T09:41:58.789Z,10.32
2022-09-17T09:44:26.045Z,16.70
2022-09-17T09:47:02.177Z,13.75
2022-09-17T09:49:45.049Z,15.15
2022-09-17T09:52:12.094Z,9.98
2022-09-17T09:54:51.347Z,14.55
2022-09-17T09:57:19.640Z,15.73
2022-09-17T09:59:46.834Z,9.02
2022-09-17T10:02:14.725Z,8.23
2022-09-17T10:04:41.914Z,13.05
2022-09-17T10:07:10.265Z,8.57
2022-09-17T10:09:38.877Z,13.63
2022-09-17T10:12:05.987Z,13.05
2022-09-17T10:14:34.866Z,9.80
2022-09-17T10:17:20.952Z,9.90
2022-09-17T10:20:00.366Z,9.30
2022-09-17T10:22:32.420Z,8.38
2022-09-17T10:25:00.672Z,9.52
2022-09-17T10:27:28.399Z,11.20
2022-09-17T10:30:15.267Z,14.32
2022-09-17T10:32:42.568Z,18.38
2022-09-17T10:35:15.773Z,11.68
2022-09-17T10:37:52.841Z,11.35
2022-09-17T10:40:20.072Z,8.57
2022-09-17T10:42:47.858Z,9.85
2022-09-17T10:45:31.140Z,6.55
2022-09-17T10:48:00.188Z,10.13
2022-09-17T10:50:29.486Z,6.65
2022-09-17T10:53:02.435Z,7.32
2022-09-17T10:55:34.199Z,8.45
2022-09-17T10:58:01.253Z,8.85
2022-09-17T11:00:30.634Z,8.82
2022-09-17T11:03:09.138Z,3.97
2022-09-17T11:05:54.665Z,7.70
2022-09-17T11:08:26.434Z,7.38
2022-09-17T11:10:59.471Z,7.05
2022-09-17T11:13:38.343Z,8.18
2022-09-17T11:16:13.829Z,8.05
2022-09-17T11:18:52.978Z,5.93
2022-09-17T11:21:29.168Z,9.25
2022-09-17T11:24:08.194Z,6.68
2022-09-17T11:26:38.022Z,8.20
2022-09-17T11:29:05.060Z,4.72
2022-09-17T11:31:38.687Z,8.35
2022-09-17T11:34:20.681Z,6.10
2022-09-17T11:37:00.894Z,10.93
2022-09-17T11:39:35.208Z,10.88
2022-09-17T11:42:04.115Z,5.28
2022-09-17T11:44:33.424Z,1.65
2022-09-17T11:47:13.474Z,1.92
2022-09-17T11:49:46.921Z,3.92
2022-09-17T11:52:33.200Z,1.15
2022-09-17T11:55:19.090Z,1.30
2022-09-17T11:57:46.953Z,1.08
2022-09-17T12:00:15.875Z,1.58
2022-09-17T12:02:49.527Z,3.03
2022-09-17T12:05:34.914Z,1.52
2022-09-17T12:08:04.741Z,0.70
2022-09-17T12:10:46.974Z,1.30
2022-09-17T12:13:18.028Z,1.77
2022-09-17T12:15:52.327Z,2.40
2022-09-17T12:18:31.681Z,4.53
2022-09-17T12:21:01.340Z,1.80
2022-09-17T12:23:35.359Z,3.33
2022-09-17T12:26:10.154Z,3.63
2022-09-17T12:28:54.294Z,2.60
2022-09-17T12:31:26.189Z,3.58
2022-09-17T12:33:58.339Z,2.90
2022-09-17T12:36:28.401Z,2.28
2022-09-17T12:39:04.533Z,3.83
2022-09-17T12:41:41.303Z,2.70
2022-09-17T12:44:17.539Z,3.90
2022-09-17T12:47:03.199Z,1.45
2022-09-17T12:49:48.719Z,2.60
2022-09-17T12:52:34.309Z,4.85
2022-09-17T12:55:27.794Z,3.72
2022-09-17T12:57:57.980Z,4.40
2022-09-17T13:00:25.373Z,4.93
2022-09-17T13:02:59.588Z,3.42
2022-09-17T13:05:32.790Z,6.20
2022-09-17T13:08:39.999Z,4.35
2022-09-17T13:11:14.836Z,4.50
2022-09-17T13:13:47.827Z,5.47
2022-09-17T13:16:19.970Z,3.15
2022-09-17T13:21:36.868Z,5.10
2022-09-17T13:24:15.022Z,7.65
2022-09-17T13:26:42.202Z,4.53
2022-09-17T13:29:10.356Z,3.15
2022-09-17T13:31:42.078Z,4.25
2022-09-17T13:34:18.204Z,2.53
2022-09-17T13:36:52.970Z,15.30
2022-09-17T13:39:40.138Z,3.53
2022-09-17T13:42:21.191Z,9.05
2022-09-17T13:45:03.212Z,6.53
2022-09-17T13:47:37.647Z,4.85
2022-09-17T13:50:09.848Z,2.97
2022-09-17T13:52:39.538Z,5.88
2022-09-17T13:55:07.160Z,6.55
2022-09-17T13:57:47.313Z,2.53
2022-09-17T14:00:33.251Z,2.70
2022-09-17T14:03:20.350Z,3.60
2022-09-17T14:05:47.743Z,3.33
2022-09-17T14:08:27.779Z,3.40
2022-09-17T14:10:55.399Z,1.65
2022-09-17T14:13:26.311Z,2.60
2022-09-17T14:16:01.868Z,3.05
2022-09-17T14:18:28.974Z,2.17
2022-09-17T14:21:08.091Z,1.88
2022-09-17T14:23:36.003Z,5.53
2022-09-17T14:26:06.097Z,2.75
2022-09-17T14:28:40.374Z,9.27
2022-09-17T14:31:13.081Z,1.63
2022-09-17T14:36:11.222Z,4.53
2022-09-17T14:38:44.662Z,2.03
2022-09-17T14:41:11.738Z,4.82
2022-09-17T14:43:44.770Z,4.13
2022-09-17T14:46:19.545Z,6.07
2022-09-17T14:48:46.650Z,2.47
2022-09-17T14:51:22.255Z,3.03
2022-09-17T14:53:50.281Z,3.70
2022-09-17T14:56:19.993Z,3.08
2022-09-17T14:58:48.766Z,5.47
2022-09-17T15:01:29.454Z,2.65
2022-09-17T15:04:14.644Z,3.42
2022-09-17T15:06:42.530Z,2.50
2022-09-17T15:09:16.116Z,2.13
2022-09-17T15:11:44.507Z,4.30
2022-09-17T15:14:22.160Z,6.65
2022-09-17T15:16:50.395Z,2.08
2022-09-17T15:19:31.128Z,2.40
2022-09-17T15:21:58.686Z,5.40
2022-09-17T15:24:40.954Z,2.55
2022-09-17T15:27:14.402Z,2.92
2022-09-17T15:29:44.760Z,3.08
2022-09-17T15:32:15.494Z,3.47
2022-09-17T15:34:42.719Z,2.15
2022-09-17T15:37:15.780Z,4.28
2022-09-17T15:39:45.793Z,5.80
2022-09-17T15:42:39.510Z,2.92
2022-09-17T15:45:19.509Z,2.33
2022-09-17T15:47:49.773Z,2.20
2022-09-17T15:50:21.228Z,3.03
2022-09-17T15:52:48.333Z,2.50
2022-09-17T15:55:31.751Z,2.05
2022-09-17T15:58:03.053Z,4.00
2022-09-17T16:00:31.378Z,4.50
2022-09-17T16:02:58.740Z,4.97
2022-09-17T16:05:25.833Z,4.40
2022-09-17T16:07:53.147Z,2.63
2022-09-17T16:10:20.327Z,3.22
2022-09-17T16:12:50.184Z,4.72
2022-09-17T16:15:17.502Z,3.72
2022-09-17T16:17:45.733Z,4.72
2022-09-17T16:20:15.994Z,4.35
2022-09-17T16:22:43.701Z,4.80
2022-09-17T16:25:11.218Z,4.45
2022-09-17T16:27:45.947Z,24.63
2022-09-17T16:30:15.191Z,5.45
2022-09-17T16:32:42.433Z,5.00
2022-09-17T16:35:16.977Z,5.05
2022-09-17T16:37:44.529Z,5.75
2022-09-17T16:40:12.795Z,2.63
2022-09-17T16:42:40.323Z,4.57
2022-09-17T16:45:09.015Z,3.60
2022-09-17T16:47:37.245Z,3.08
2022-09-17T16:50:08.210Z,3.55
2022-09-17T16:52:35.844Z,6.65
2022-09-17T16:55:03.271Z,4.53
2022-09-17T16:57:31.351Z,6.03
2022-09-17T16:59:58.827Z,4.43
2022-09-17T17:02:25.973Z,4.53
2022-09-17T17:04:54.222Z,5.00
2022-09-17T17:07:21.374Z,4.15
2022-09-17T17:09:48.482Z,3.78
2022-09-17T17:12:15.578Z,5.22
2022-09-17T17:14:44.417Z,7.90
2022-09-17T17:17:11.512Z,3.75
2022-09-17T17:19:38.880Z,5.60
2022-09-17T17:22:06.846Z,4.75
2022-09-17T17:24:33.949Z,7.10
2022-09-17T17:27:01.643Z,6.40
2022-09-17T17:29:28.726Z,4.30
2022-09-17T17:31:55.780Z,5.82
2022-09-17T17:34:22.905Z,4.25
2022-09-17T17:36:50.615Z,5.72
2022-09-17T17:39:18.066Z,5.88
2022-09-17T17:41:49.674Z,7.20
2022-09-17T17:44:18.683Z,3.00
2022-09-17T17:46:45.768Z,6.20
2022-09-17T17:49:12.879Z,6.78
2022-09-17T17:51:39.988Z,3.85
2022-09-17T17:54:07.045Z,5.05
2022-09-17T17:56:34.159Z,3.10
2022-09-17T17:59:01.781Z,2.45
2022-09-17T18:01:30.620Z,2.47
2022-09-17T18:04:01.270Z,5.57
2022-09-17T18:06:28.973Z,2.50
2022-09-17T18:08:56.118Z,1.83
2022-09-17T18:11:23.733Z,1.33
2022-09-17T18:13:54.734Z,2.50
2022-09-17T18:16:23.342Z,2.17
2022-09-17T18:18:50.857Z,2.85
2022-09-17T18:21:19.268Z,2.53
2022-09-17T18:23:46.789Z,3.58
2022-09-17T18:26:32.578Z,2.50
2022-09-17T18:29:01.436Z,3.00
2022-09-17T18:31:32.751Z,2.30
2022-09-17T18:34:02.023Z,3.65
2022-09-17T18:36:30.315Z,3.22
2022-09-17T18:39:11.045Z,3.95
2022-09-17T18:41:48.789Z,8.80
2022-09-17T18:44:15.964Z,5.15
2022-09-17T18:46:43.168Z,4.40
2022-09-17T18:49:10.584Z,6.00
2022-09-17T18:51:38.374Z,4.88
2022-09-17T18:54:06.252Z,4.22
2022-09-17T18:56:33.447Z,6.20
2022-09-17T18:59:05.659Z,5.47
2022-09-17T19:01:35.450Z,5.53
2022-09-17T19:04:03.187Z,6.65
2022-09-17T19:06:32.202Z,5.70
2022-09-17T19:09:00.446Z,6.13
2022-09-17T19:11:27.826Z,7.10
2022-09-17T19:13:55.292Z,9.93
2022-09-17T19:16:22.671Z,5.38
2022-09-17T19:18:50.098Z,4.97
2022-09-17T19:21:18.943Z,9.73
2022-09-17T19:23:47.116Z,7.60
2022-09-17T19:26:18.555Z,7.97
2022-09-17T19:28:45.746Z,7.75
2022-09-17T19:31:14.232Z,8.32
2022-09-17T19:33:41.420Z,6.95
2022-09-17T19:36:11.109Z,4.82
2022-09-17T19:38:38.720Z,5.70
2022-09-17T19:41:07.221Z,7.28
2022-09-17T19:43:34.484Z,3.60
2022-09-17T19:46:09.169Z,14.18
2022-09-17T19:48:36.453Z,6.90
2022-09-17T19:51:04.373Z,4.40
2022-09-17T19:53:32.805Z,5.07
2022-09-17T19:56:03.281Z,6.22
2022-09-17T19:58:30.380Z,7.35
2022-09-17T20:00:58.065Z,9.50
2022-09-17T20:03:25.717Z,5.53
2022-09-17T20:06:20.564Z,6.28
2022-09-17T20:08:48.268Z,7.07
2022-09-17T20:11:16.178Z,4.88
2022-09-17T20:13:43.307Z,6.13
2022-09-17T20:16:14.996Z,5.50
2022-09-17T20:18:43.814Z,6.35
2022-09-17T20:21:15.527Z,3.13
2022-09-17T20:23:42.649Z,6.18
2022-09-17T20:26:10.186Z,4.10
2022-09-17T20:28:37.278Z,5.53
2022-09-17T20:31:05.390Z,6.82
2022-09-17T20:33:32.614Z,4.90
2022-09-17T20:36:04.449Z,6.25
2022-09-17T20:41:19.258Z,4.78
2022-09-17T20:43:47.442Z,7.47
2022-09-17T20:46:14.968Z,6.00
2022-09-17T20:48:42.467Z,3.40
2022-09-17T20:51:14.277Z,4.47
2022-09-17T20:53:42.133Z,5.45
2022-09-17T20:56:29.506Z,3.85
2022-09-17T20:59:13.249Z,3.05
2022-09-17T21:01:40.856Z,5.90
2022-09-17T21:04:08.993Z,3.55
2022-09-17T21:06:37.691Z,5.13
2022-09-17T21:09:10.341Z,4.90
2022-09-17T21:11:37.466Z,4.25
2022-09-17T21:14:04.985Z,4.78
2022-09-17T21:16:32.218Z,4.00
2022-09-17T21:19:01.449Z,6.78
2022-09-17T21:21:28.865Z,9.05
2022-09-17T21:23:56.051Z,4.20
2022-09-17T21:26:24.905Z,7.03
2022-09-17T21:28:52.826Z,6.80
2022-09-17T21:31:28.414Z,7.55
2022-09-17T21:34:00.397Z,5.20
2022-09-17T21:36:28.771Z,4.03
2022-09-17T21:38:56.854Z,3.05
2022-09-17T21:41:24.798Z,4.05
2022-09-17T21:43:52.279Z,8.48
2022-09-17T21:46:21.448Z,4.25
2022-09-17T21:48:48.638Z,4.35
2022-09-17T21:51:17.492Z,3.72
2022-09-17T21:53:44.851Z,7.38
2022-09-17T21:56:13.525Z,5.38
2022-09-17T21:58:41.175Z,5.68
2022-09-17T22:01:13.383Z,3.63
2022-09-17T22:03:40.608Z,3.80
2022-09-17T22:06:09.066Z,5.53
2022-09-17T22:08:36.287Z,6.40
2022-09-17T22:11:07.333Z,3.72
2022-09-17T22:13:34.903Z,2.67
2022-09-17T22:16:06.058Z,7.97
2022-09-17T22:18:33.893Z,6.30
2022-09-17T22:21:01.379Z,12.10
2022-09-17T22:23:28.673Z,2.70
2022-09-17T22:26:02.683Z,7.20
2022-09-17T22:28:29.779Z,2.42
2022-09-17T22:30:57.105Z,7.05
2022-09-17T22:33:26.591Z,6.00
2022-09-17T22:35:54.411Z,7.63
2022-09-17T22:38:21.670Z,4.55
2022-09-17T22:40:48.806Z,8.20
2022-09-17T22:43:15.924Z,7.45
2022-09-17T22:45:43.020Z,7.07
2022-09-17T22:48:10.083Z,5.97
2022-09-17T22:50:37.149Z,6.30
2022-09-17T22:53:04.240Z,6.75
2022-09-17T22:55:31.490Z,5.68
2022-09-17T22:57:58.550Z,5.13
2022-09-17T23:00:25.633Z,7.57
2022-09-17T23:02:52.755Z,7.15
2022-09-17T23:05:19.862Z,4.38
2022-09-17T23:07:46.935Z,6.95
2022-09-17T23:10:14.011Z,10.88
2022-09-17T23:12:41.155Z,7.45
2022-09-17T23:15:08.473Z,8.00
2022-09-17T23:17:35.842Z,7.80
2022-09-17T23:20:03.685Z,8.60
2022-09-17T23:22:31.330Z,7.13
2022-09-17T23:24:58.495Z,7.53
2022-09-17T23:27:25.672Z,6.93
2022-09-17T23:29:55.591Z,6.70
2022-09-17T23:32:22.684Z,8.68
2022-09-17T23:34:49.749Z,8.48
2022-09-17T23:37:19.287Z,5.13
2022-09-17T23:39:46.601Z,8.60
2022-09-17T23:42:13.694Z,6.22
2022-09-17T23:44:40.854Z,7.32
2022-09-17T23:47:07.951Z,8.73
2022-09-17T23:49:35.060Z,10.27
2022-09-17T23:52:02.253Z,11.55
2022-09-17T23:54:29.349Z,2.83
2022-09-17T23:56:56.400Z,9.30
2022-09-17T23:59:23.514Z,11.60
